sensor_id;sensor_type;location;lat;lon;timestamp;temperature;humidity
65876;HTU21D;52657;51.128;5.938;2023-11-19T00:05:47;14.82;82.52
65876;HTU21D;52657;51.128;5.938;2023-11-19T00:08:13;14.84;82.38
65876;HTU21D;52657;51.128;5.938;2023-11-19T00:10:39;14.83;82.32
65876;HTU21D;52657;51.128;5.938;2023-11-19T00:13:05;14.84;82.37
65876;HTU21D;52657;51.128;5.938;2023-11-19T00:15:30;14.87;82.24
65876;HTU21D;52657;51.128;5.938;2023-11-19T00:17:56;14.81;82.48
65876;HTU21D;52657;51.128;5.938;2023-11-19T00:20:22;14.84;82.34
65876;HTU21D;52657;51.128;5.938;2023-11-19T00:22:48;14.81;82.47
65876;HTU21D;52657;51.128;5.938;2023-11-19T00:25:17;14.85;82.43
65876;HTU21D;52657;51.128;5.938;2023-11-19T00:27:43;14.87;82.36
65876;HTU21D;52657;51.128;5.938;2023-11-19T00:30:12;14.88;82.30
65876;HTU21D;52657;51.128;5.938;2023-11-19T00:32:39;14.89;82.37
65876;HTU21D;52657;51.128;5.938;2023-11-19T00:35:07;14.89;82.41
65876;HTU21D;52657;51.128;5.938;2023-11-19T00:37:33;14.93;82.40
65876;HTU21D;52657;51.128;5.938;2023-11-19T00:39:59;14.92;82.42
65876;HTU21D;52657;51.128;5.938;2023-11-19T00:42:25;14.95;82.49
65876;HTU21D;52657;51.128;5.938;2023-11-19T00:44:51;14.96;82.48
65876;HTU21D;52657;51.128;5.938;2023-11-19T00:47:17;14.99;82.42
65876;HTU21D;52657;51.128;5.938;2023-11-19T00:49:46;15.02;82.25
65876;HTU21D;52657;51.128;5.938;2023-11-19T00:52:14;15.04;82.27
65876;HTU21D;52657;51.128;5.938;2023-11-19T00:54:41;15.07;82.19
65876;HTU21D;52657;51.128;5.938;2023-11-19T00:57:06;15.11;82.06
65876;HTU21D;52657;51.128;5.938;2023-11-19T00:59:33;15.15;81.91
65876;HTU21D;52657;51.128;5.938;2023-11-19T01:01:59;15.17;81.77
65876;HTU21D;52657;51.128;5.938;2023-11-19T01:04:34;15.17;81.72
65876;HTU21D;52657;51.128;5.938;2023-11-19T01:07:02;15.14;81.76
65876;HTU21D;52657;51.128;5.938;2023-11-19T01:09:34;15.16;81.69
65876;HTU21D;52657;51.128;5.938;2023-11-19T01:12:01;15.17;81.54
65876;HTU21D;52657;51.128;5.938;2023-11-19T01:14:28;15.17;81.62
65876;HTU21D;52657;51.128;5.938;2023-11-19T01:16:54;15.17;81.61
65876;HTU21D;52657;51.128;5.938;2023-11-19T01:19:23;15.17;81.62
65876;HTU21D;52657;51.128;5.938;2023-11-19T01:21:50;15.22;81.49
65876;HTU21D;52657;51.128;5.938;2023-11-19T01:24:17;15.22;81.48
65876;HTU21D;52657;51.128;5.938;2023-11-19T01:26:43;15.22;81.57
65876;HTU21D;52657;51.128;5.938;2023-11-19T01:29:13;15.24;81.59
65876;HTU21D;52657;51.128;5.938;2023-11-19T01:31:46;15.26;81.62
65876;HTU21D;52657;51.128;5.938;2023-11-19T01:34:16;15.27;81.74
65876;HTU21D;52657;51.128;5.938;2023-11-19T01:36:42;15.30;81.65
65876;HTU21D;52657;51.128;5.938;2023-11-19T01:39:07;15.31;81.74
65876;HTU21D;52657;51.128;5.938;2023-11-19T01:41:37;15.36;81.65
65876;HTU21D;52657;51.128;5.938;2023-11-19T01:44:06;15.39;81.51
65876;HTU21D;52657;51.128;5.938;2023-11-19T01:46:32;15.42;81.44
65876;HTU21D;52657;51.128;5.938;2023-11-19T01:49:00;15.47;81.32
65876;HTU21D;52657;51.128;5.938;2023-11-19T01:51:27;15.48;81.25
65876;HTU21D;52657;51.128;5.938;2023-11-19T01:53:55;15.48;81.15
65876;HTU21D;52657;51.128;5.938;2023-11-19T01:56:23;15.49;81.16
65876;HTU21D;52657;51.128;5.938;2023-11-19T01:58:50;15.51;81.14
65876;HTU21D;52657;51.128;5.938;2023-11-19T02:01:16;15.51;81.04
65876;HTU21D;52657;51.128;5.938;2023-11-19T02:03:43;15.47;81.07
65876;HTU21D;52657;51.128;5.938;2023-11-19T02:06:09;15.49;80.93
65876;HTU21D;52657;51.128;5.938;2023-11-19T02:08:36;15.53;80.82
65876;HTU21D;52657;51.128;5.938;2023-11-19T02:11:02;15.53;80.75
65876;HTU21D;52657;51.128;5.938;2023-11-19T02:13:29;15.56;80.65
65876;HTU21D;52657;51.128;5.938;2023-11-19T02:15:55;15.55;80.67
65876;HTU21D;52657;51.128;5.938;2023-11-19T02:20:48;15.58;80.60
65876;HTU21D;52657;51.128;5.938;2023-11-19T02:23:15;15.57;80.67
65876;HTU21D;52657;51.128;5.938;2023-11-19T02:25:43;15.56;80.63
65876;HTU21D;52657;51.128;5.938;2023-11-19T02:28:12;15.59;80.49
65876;HTU21D;52657;51.128;5.938;2023-11-19T02:30:38;15.59;80.40
65876;HTU21D;52657;51.128;5.938;2023-11-19T02:33:04;15.57;80.42
65876;HTU21D;52657;51.128;5.938;2023-11-19T02:35:33;15.60;80.27
65876;HTU21D;52657;51.128;5.938;2023-11-19T02:37:59;15.58;80.24
65876;HTU21D;52657;51.128;5.938;2023-11-19T02:40:26;15.58;80.11
65876;HTU21D;52657;51.128;5.938;2023-11-19T02:42:53;15.56;80.20
65876;HTU21D;52657;51.128;5.938;2023-11-19T02:45:19;15.60;79.99
65876;HTU21D;52657;51.128;5.938;2023-11-19T02:47:45;15.58;79.91
65876;HTU21D;52657;51.128;5.938;2023-11-19T02:50:11;15.55;79.39
65876;HTU21D;52657;51.128;5.938;2023-11-19T02:52:44;15.55;79.66
65876;HTU21D;52657;51.128;5.938;2023-11-19T02:55:12;15.58;79.37
65876;HTU21D;52657;51.128;5.938;2023-11-19T02:57:39;15.56;79.16
65876;HTU21D;52657;51.128;5.938;2023-11-19T03:00:15;15.54;79.06
65876;HTU21D;52657;51.128;5.938;2023-11-19T03:02:41;15.56;78.82
65876;HTU21D;52657;51.128;5.938;2023-11-19T03:05:14;15.56;78.53
65876;HTU21D;52657;51.128;5.938;2023-11-19T03:07:42;15.53;78.29
65876;HTU21D;52657;51.128;5.938;2023-11-19T03:10:09;15.53;78.06
65876;HTU21D;52657;51.128;5.938;2023-11-19T03:12:42;15.46;77.48
65876;HTU21D;52657;51.128;5.938;2023-11-19T03:15:09;15.45;76.81
65876;HTU21D;52657;51.128;5.938;2023-11-19T03:17:39;15.44;77.48
65876;HTU21D;52657;51.128;5.938;2023-11-19T03:20:10;15.45;77.21
65876;HTU21D;52657;51.128;5.938;2023-11-19T03:22:44;15.45;77.11
65876;HTU21D;52657;51.128;5.938;2023-11-19T03:25:10;15.44;77.05
65876;HTU21D;52657;51.128;5.938;2023-11-19T03:27:37;15.43;76.94
65876;HTU21D;52657;51.128;5.938;2023-11-19T03:30:05;15.43;76.80
65876;HTU21D;52657;51.128;5.938;2023-11-19T03:32:33;15.43;76.58
65876;HTU21D;52657;51.128;5.938;2023-11-19T03:35:01;15.39;76.71
65876;HTU21D;52657;51.128;5.938;2023-11-19T03:37:27;15.37;76.53
65876;HTU21D;52657;51.128;5.938;2023-11-19T03:39:59;15.30;76.64
65876;HTU21D;52657;51.128;5.938;2023-11-19T03:42:26;15.28;76.89
65876;HTU21D;52657;51.128;5.938;2023-11-19T03:44:53;15.25;76.99
65876;HTU21D;52657;51.128;5.938;2023-11-19T03:47:19;15.21;77.37
65876;HTU21D;52657;51.128;5.938;2023-11-19T03:49:49;15.18;77.45
65876;HTU21D;52657;51.128;5.938;2023-11-19T03:52:16;15.21;77.51
65876;HTU21D;52657;51.128;5.938;2023-11-19T03:54:42;15.17;77.66
65876;HTU21D;52657;51.128;5.938;2023-11-19T03:57:08;15.13;77.90
65876;HTU21D;52657;51.128;5.938;2023-11-19T03:59:36;15.11;77.97
65876;HTU21D;52657;51.128;5.938;2023-11-19T04:02:02;15.09;78.10
65876;HTU21D;52657;51.128;5.938;2023-11-19T04:04:28;15.07;78.09
65876;HTU21D;52657;51.128;5.938;2023-11-19T04:06:57;15.04;78.18
65876;HTU21D;52657;51.128;5.938;2023-11-19T04:09:24;15.04;78.19
65876;HTU21D;52657;51.128;5.938;2023-11-19T04:11:49;15.06;78.28
65876;HTU21D;52657;51.128;5.938;2023-11-19T04:14:15;15.04;78.46
65876;HTU21D;52657;51.128;5.938;2023-11-19T04:16:44;15.06;78.43
65876;HTU21D;52657;51.128;5.938;2023-11-19T04:19:11;15.09;78.08
65876;HTU21D;52657;51.128;5.938;2023-11-19T04:21:39;15.08;77.86
65876;HTU21D;52657;51.128;5.938;2023-11-19T04:24:05;15.09;77.62
65876;HTU21D;52657;51.128;5.938;2023-11-19T04:26:31;15.09;77.40
65876;HTU21D;52657;51.128;5.938;2023-11-19T04:28:57;15.09;77.08
65876;HTU21D;52657;51.128;5.938;2023-11-19T04:31:29;15.07;76.98
65876;HTU21D;52657;51.128;5.938;2023-11-19T04:33:54;15.07;76.82
65876;HTU21D;52657;51.128;5.938;2023-11-19T04:36:20;15.07;76.60
65876;HTU21D;52657;51.128;5.938;2023-11-19T04:38:49;15.07;76.44
65876;HTU21D;52657;51.128;5.938;2023-11-19T04:41:15;15.09;76.35
65876;HTU21D;52657;51.128;5.938;2023-11-19T04:43:41;15.11;76.30
65876;HTU21D;52657;51.128;5.938;2023-11-19T04:46:09;15.10;76.32
65876;HTU21D;52657;51.128;5.938;2023-11-19T04:48:34;15.09;76.50
65876;HTU21D;52657;51.128;5.938;2023-11-19T04:51:00;15.11;76.47
65876;HTU21D;52657;51.128;5.938;2023-11-19T04:53:26;15.12;76.33
65876;HTU21D;52657;51.128;5.938;2023-11-19T04:55:51;15.11;76.26
65876;HTU21D;52657;51.128;5.938;2023-11-19T04:58:17;15.10;76.05
65876;HTU21D;52657;51.128;5.938;2023-11-19T05:00:44;15.09;75.99
65876;HTU21D;52657;51.128;5.938;2023-11-19T05:03:10;15.08;75.92
65876;HTU21D;52657;51.128;5.938;2023-11-19T05:05:36;15.09;75.71
65876;HTU21D;52657;51.128;5.938;2023-11-19T05:08:02;15.07;75.70
65876;HTU21D;52657;51.128;5.938;2023-11-19T05:10:28;15.07;75.48
65876;HTU21D;52657;51.128;5.938;2023-11-19T05:12:53;15.08;75.50
65876;HTU21D;52657;51.128;5.938;2023-11-19T05:15:21;15.10;75.39
65876;HTU21D;52657;51.128;5.938;2023-11-19T05:17:47;15.09;75.24
65876;HTU21D;52657;51.128;5.938;2023-11-19T05:20:13;15.12;75.00
65876;HTU21D;52657;51.128;5.938;2023-11-19T05:22:42;15.10;75.04
65876;HTU21D;52657;51.128;5.938;2023-11-19T05:25:09;15.11;74.90
65876;HTU21D;52657;51.128;5.938;2023-11-19T05:27:36;15.11;74.82
65876;HTU21D;52657;51.128;5.938;2023-11-19T05:30:05;15.09;74.76
65876;HTU21D;52657;51.128;5.938;2023-11-19T05:32:36;15.06;74.73
65876;HTU21D;52657;51.128;5.938;2023-11-19T05:35:02;15.04;74.43
65876;HTU21D;52657;51.128;5.938;2023-11-19T05:37:28;15.01;74.48
65876;HTU21D;52657;51.128;5.938;2023-11-19T05:39:53;14.96;74.36
65876;HTU21D;52657;51.128;5.938;2023-11-19T05:42:19;14.92;74.08
65876;HTU21D;52657;51.128;5.938;2023-11-19T05:44:44;14.91;74.15
65876;HTU21D;52657;51.128;5.938;2023-11-19T05:47:10;14.92;73.95
65876;HTU21D;52657;51.128;5.938;2023-11-19T05:49:36;14.88;73.85
65876;HTU21D;52657;51.128;5.938;2023-11-19T05:52:02;14.87;73.70
65876;HTU21D;52657;51.128;5.938;2023-11-19T05:54:28;14.86;73.48
65876;HTU21D;52657;51.128;5.938;2023-11-19T05:56:54;14.86;73.35
65876;HTU21D;52657;51.128;5.938;2023-11-19T05:59:20;14.88;73.05
65876;HTU21D;52657;51.128;5.938;2023-11-19T06:01:48;14.85;72.92
65876;HTU21D;52657;51.128;5.938;2023-11-19T06:04:14;14.84;72.85
65876;HTU21D;52657;51.128;5.938;2023-11-19T06:06:39;14.81;72.89
65876;HTU21D;52657;51.128;5.938;2023-11-19T06:09:06;14.79;72.92
65876;HTU21D;52657;51.128;5.938;2023-11-19T06:11:35;14.77;72.87
65876;HTU21D;52657;51.128;5.938;2023-11-19T06:14:01;14.77;72.77
65876;HTU21D;52657;51.128;5.938;2023-11-19T06:16:28;14.70;72.83
65876;HTU21D;52657;51.128;5.938;2023-11-19T06:18:54;14.67;72.75
65876;HTU21D;52657;51.128;5.938;2023-11-19T06:21:20;14.63;72.69
65876;HTU21D;52657;51.128;5.938;2023-11-19T06:23:45;14.60;72.49
65876;HTU21D;52657;51.128;5.938;2023-11-19T06:26:11;14.58;72.41
65876;HTU21D;52657;51.128;5.938;2023-11-19T06:28:37;14.56;72.28
65876;HTU21D;52657;51.128;5.938;2023-11-19T06:31:03;14.56;72.15
65876;HTU21D;52657;51.128;5.938;2023-11-19T06:33:29;14.56;72.04
65876;HTU21D;52657;51.128;5.938;2023-11-19T06:35:55;14.53;72.07
65876;HTU21D;52657;51.128;5.938;2023-11-19T06:38:20;14.49;72.18
65876;HTU21D;52657;51.128;5.938;2023-11-19T06:40:46;14.47;72.24
65876;HTU21D;52657;51.128;5.938;2023-11-19T06:43:12;14.44;72.25
65876;HTU21D;52657;51.128;5.938;2023-11-19T06:45:37;14.43;72.10
65876;HTU21D;52657;51.128;5.938;2023-11-19T06:48:03;14.44;71.98
65876;HTU21D;52657;51.128;5.938;2023-11-19T06:50:31;14.44;71.87
65876;HTU21D;52657;51.128;5.938;2023-11-19T06:52:56;14.44;71.77
65876;HTU21D;52657;51.128;5.938;2023-11-19T06:55:22;14.40;71.80
65876;HTU21D;52657;51.128;5.938;2023-11-19T06:57:48;14.36;71.76
65876;HTU21D;52657;51.128;5.938;2023-11-19T07:00:13;14.34;71.77
65876;HTU21D;52657;51.128;5.938;2023-11-19T07:02:39;14.34;71.73
65876;HTU21D;52657;51.128;5.938;2023-11-19T07:05:05;14.34;71.75
65876;HTU21D;52657;51.128;5.938;2023-11-19T07:07:32;14.33;71.71
65876;HTU21D;52657;51.128;5.938;2023-11-19T07:10:01;14.30;71.60
65876;HTU21D;52657;51.128;5.938;2023-11-19T07:12:27;14.28;71.84
65876;HTU21D;52657;51.128;5.938;2023-11-19T07:14:53;14.26;71.96
65876;HTU21D;52657;51.128;5.938;2023-11-19T07:17:20;14.22;72.17
65876;HTU21D;52657;51.128;5.938;2023-11-19T07:19:47;14.26;72.18
65876;HTU21D;52657;51.128;5.938;2023-11-19T07:22:14;14.27;72.29
65876;HTU21D;52657;51.128;5.938;2023-11-19T07:24:43;14.30;72.19
65876;HTU21D;52657;51.128;5.938;2023-11-19T07:27:09;14.29;72.32
65876;HTU21D;52657;51.128;5.938;2023-11-19T07:29:35;14.28;72.31
65876;HTU21D;52657;51.128;5.938;2023-11-19T07:32:01;14.25;72.54
65876;HTU21D;52657;51.128;5.938;2023-11-19T07:34:27;14.28;72.41
65876;HTU21D;52657;51.128;5.938;2023-11-19T07:36:54;14.33;72.45
65876;HTU21D;52657;51.128;5.938;2023-11-19T07:39:22;14.33;72.49
65876;HTU21D;52657;51.128;5.938;2023-11-19T07:41:49;14.42;72.42
65876;HTU21D;52657;51.128;5.938;2023-11-19T07:44:15;14.49;72.00
65876;HTU21D;52657;51.128;5.938;2023-11-19T07:46:41;14.55;72.19
65876;HTU21D;52657;51.128;5.938;2023-11-19T07:49:08;14.59;71.93
65876;HTU21D;52657;51.128;5.938;2023-11-19T07:51:35;14.65;71.77
65876;HTU21D;52657;51.128;5.938;2023-11-19T07:54:01;14.63;71.63
65876;HTU21D;52657;51.128;5.938;2023-11-19T07:56:27;14.67;71.80
65876;HTU21D;52657;51.128;5.938;2023-11-19T07:58:53;14.68;71.70
65876;HTU21D;52657;51.128;5.938;2023-11-19T08:01:19;14.69;71.63
65876;HTU21D;52657;51.128;5.938;2023-11-19T08:03:45;14.74;71.48
65876;HTU21D;52657;51.128;5.938;2023-11-19T08:06:10;14.74;71.59
65876;HTU21D;52657;51.128;5.938;2023-11-19T08:08:37;14.82;71.47
65876;HTU21D;52657;51.128;5.938;2023-11-19T08:11:04;14.84;71.31
65876;HTU21D;52657;51.128;5.938;2023-11-19T08:13:30;14.86;71.15
65876;HTU21D;52657;51.128;5.938;2023-11-19T08:15:57;14.89;70.84
65876;HTU21D;52657;51.128;5.938;2023-11-19T08:18:24;14.95;70.87
65876;HTU21D;52657;51.128;5.938;2023-11-19T08:20:50;15.02;70.53
65876;HTU21D;52657;51.128;5.938;2023-11-19T08:23:19;15.08;70.29
65876;HTU21D;52657;51.128;5.938;2023-11-19T08:25:45;15.12;70.16
65876;HTU21D;52657;51.128;5.938;2023-11-19T08:28:11;15.26;70.11
65876;HTU21D;52657;51.128;5.938;2023-11-19T08:30:37;15.38;69.52
65876;HTU21D;52657;51.128;5.938;2023-11-19T08:33:03;15.49;68.92
65876;HTU21D;52657;51.128;5.938;2023-11-19T08:35:32;15.52;68.68
65876;HTU21D;52657;51.128;5.938;2023-11-19T08:37:58;15.58;68.58
65876;HTU21D;52657;51.128;5.938;2023-11-19T08:40:24;15.63;68.10
65876;HTU21D;52657;51.128;5.938;2023-11-19T08:42:51;15.77;68.24
65876;HTU21D;52657;51.128;5.938;2023-11-19T08:45:17;15.86;67.45
65876;HTU21D;52657;51.128;5.938;2023-11-19T08:47:43;15.95;67.35
65876;HTU21D;52657;51.128;5.938;2023-11-19T08:50:11;15.96;66.99
65876;HTU21D;52657;51.128;5.938;2023-11-19T08:52:37;15.89;66.83
65876;HTU21D;52657;51.128;5.938;2023-11-19T08:55:04;15.90;67.01
65876;HTU21D;52657;51.128;5.938;2023-11-19T08:57:31;15.89;66.72
65876;HTU21D;52657;51.128;5.938;2023-11-19T08:59:58;15.84;66.80
65876;HTU21D;52657;51.128;5.938;2023-11-19T09:02:24;15.88;66.57
65876;HTU21D;52657;51.128;5.938;2023-11-19T09:04:50;15.84;66.73
65876;HTU21D;52657;51.128;5.938;2023-11-19T09:07:16;15.87;66.62
65876;HTU21D;52657;51.128;5.938;2023-11-19T09:09:41;15.85;66.56
65876;HTU21D;52657;51.128;5.938;2023-11-19T09:12:07;15.87;66.54
65876;HTU21D;52657;51.128;5.938;2023-11-19T09:14:33;16.02;66.53
65876;HTU21D;52657;51.128;5.938;2023-11-19T09:16:59;16.13;66.17
65876;HTU21D;52657;51.128;5.938;2023-11-19T09:19:25;16.24;65.92
65876;HTU21D;52657;51.128;5.938;2023-11-19T09:21:52;16.29;65.49
65876;HTU21D;52657;51.128;5.938;2023-11-19T09:24:18;16.27;65.13
65876;HTU21D;52657;51.128;5.938;2023-11-19T09:26:46;16.24;65.15
65876;HTU21D;52657;51.128;5.938;2023-11-19T09:29:12;16.18;65.06
65876;HTU21D;52657;51.128;5.938;2023-11-19T09:31:43;16.13;65.05
65876;HTU21D;52657;51.128;5.938;2023-11-19T09:34:09;16.15;65.31
65876;HTU21D;52657;51.128;5.938;2023-11-19T09:36:35;16.26;65.05
65876;HTU21D;52657;51.128;5.938;2023-11-19T09:39:00;16.27;65.02
65876;HTU21D;52657;51.128;5.938;2023-11-19T09:41:27;16.26;65.02
65876;HTU21D;52657;51.128;5.938;2023-11-19T09:43:53;16.24;64.95
65876;HTU21D;52657;51.128;5.938;2023-11-19T09:46:19;16.21;65.17
65876;HTU21D;52657;51.128;5.938;2023-11-19T09:48:46;16.22;64.92
65876;HTU21D;52657;51.128;5.938;2023-11-19T09:51:14;16.19;64.73
65876;HTU21D;52657;51.128;5.938;2023-11-19T09:53:39;16.14;64.76
65876;HTU21D;52657;51.128;5.938;2023-11-19T09:56:06;16.27;64.90
65876;HTU21D;52657;51.128;5.938;2023-11-19T09:58:34;16.40;64.47
65876;HTU21D;52657;51.128;5.938;2023-11-19T10:01:00;16.39;64.01
65876;HTU21D;52657;51.128;5.938;2023-11-19T10:03:33;16.26;64.27
65876;HTU21D;52657;51.128;5.938;2023-11-19T10:06:01;16.21;63.99
65876;HTU21D;52657;51.128;5.938;2023-11-19T10:08:27;16.25;64.34
65876;HTU21D;52657;51.128;5.938;2023-11-19T10:10:53;16.25;63.79
65876;HTU21D;52657;51.128;5.938;2023-11-19T10:13:19;16.24;64.24
65876;HTU21D;52657;51.128;5.938;2023-11-19T10:15:45;16.19;64.49
65876;HTU21D;52657;51.128;5.938;2023-11-19T10:18:14;16.26;64.45
65876;HTU21D;52657;51.128;5.938;2023-11-19T10:20:41;16.25;64.15
65876;HTU21D;52657;51.128;5.938;2023-11-19T10:23:07;16.20;63.82
65876;HTU21D;52657;51.128;5.938;2023-11-19T10:25:34;16.22;63.79
65876;HTU21D;52657;51.128;5.938;2023-11-19T10:28:00;16.21;64.07
65876;HTU21D;52657;51.128;5.938;2023-11-19T10:30:27;16.28;63.98
65876;HTU21D;52657;51.128;5.938;2023-11-19T10:33:08;16.26;63.60
65876;HTU21D;52657;51.128;5.938;2023-11-19T10:35:51;16.13;63.53
65876;HTU21D;52657;51.128;5.938;2023-11-19T10:38:20;16.12;63.89
65876;HTU21D;52657;51.128;5.938;2023-11-19T10:40:48;16.18;63.82
65876;HTU21D;52657;51.128;5.938;2023-11-19T10:43:15;16.26;63.63
65876;HTU21D;52657;51.128;5.938;2023-11-19T10:45:41;16.31;63.63
65876;HTU21D;52657;51.128;5.938;2023-11-19T10:48:07;16.29;63.94
65876;HTU21D;52657;51.128;5.938;2023-11-19T10:50:37;16.25;63.79
65876;HTU21D;52657;51.128;5.938;2023-11-19T10:53:05;16.33;64.05
65876;HTU21D;52657;51.128;5.938;2023-11-19T10:55:33;16.44;64.24
65876;HTU21D;52657;51.128;5.938;2023-11-19T10:58:05;16.47;63.82
65876;HTU21D;52657;51.128;5.938;2023-11-19T11:00:46;16.42;63.78
65876;HTU21D;52657;51.128;5.938;2023-11-19T11:03:18;16.40;64.08
65876;HTU21D;52657;51.128;5.938;2023-11-19T11:05:47;16.37;63.98
65876;HTU21D;52657;51.128;5.938;2023-11-19T11:08:13;16.39;64.01
65876;HTU21D;52657;51.128;5.938;2023-11-19T11:10:54;16.45;63.76
65876;HTU21D;52657;51.128;5.938;2023-11-19T11:13:23;16.44;63.24
65876;HTU21D;52657;51.128;5.938;2023-11-19T11:15:50;16.42;62.78
65876;HTU21D;52657;51.128;5.938;2023-11-19T11:18:17;16.37;62.37
65876;HTU21D;52657;51.128;5.938;2023-11-19T11:20:45;16.40;62.92
65876;HTU21D;52657;51.128;5.938;2023-11-19T11:28:57;16.42;62.68
65876;HTU21D;52657;51.128;5.938;2023-11-19T11:31:53;16.50;62.57
65876;HTU21D;52657;51.128;5.938;2023-11-19T11:37:32;16.71;62.35
65876;HTU21D;52657;51.128;5.938;2023-11-19T11:39:58;16.72;62.66
65876;HTU21D;52657;51.128;5.938;2023-11-19T11:45:07;16.57;62.80
65876;HTU21D;52657;51.128;5.938;2023-11-19T11:50:14;16.57;62.90
65876;HTU21D;52657;51.128;5.938;2023-11-19T11:57:50;16.44;64.11
65876;HTU21D;52657;51.128;5.938;2023-11-19T12:00:51;16.41;64.59
65876;HTU21D;52657;51.128;5.938;2023-11-19T12:03:20;16.29;65.07
65876;HTU21D;52657;51.128;5.938;2023-11-19T12:05:50;16.18;65.67
65876;HTU21D;52657;51.128;5.938;2023-11-19T12:08:20;16.12;65.98
65876;HTU21D;52657;51.128;5.938;2023-11-19T12:10:52;16.14;66.15
65876;HTU21D;52657;51.128;5.938;2023-11-19T12:13:20;16.17;66.14
65876;HTU21D;52657;51.128;5.938;2023-11-19T12:18:24;16.28;65.78
65876;HTU21D;52657;51.128;5.938;2023-11-19T12:20:51;16.29;65.56
65876;HTU21D;52657;51.128;5.938;2023-11-19T12:23:17;16.25;65.17
65876;HTU21D;52657;51.128;5.938;2023-11-19T12:25:43;16.21;65.28
65876;HTU21D;52657;51.128;5.938;2023-11-19T12:28:17;16.19;65.46
65876;HTU21D;52657;51.128;5.938;2023-11-19T12:30:43;16.22;65.29
65876;HTU21D;52657;51.128;5.938;2023-11-19T12:33:11;16.21;65.11
65876;HTU21D;52657;51.128;5.938;2023-11-19T12:35:45;16.20;65.51
65876;HTU21D;52657;51.128;5.938;2023-11-19T12:38:24;16.21;65.44
65876;HTU21D;52657;51.128;5.938;2023-11-19T12:41:03;16.19;65.06
65876;HTU21D;52657;51.128;5.938;2023-11-19T12:43:29;16.19;65.46
65876;HTU21D;52657;51.128;5.938;2023-11-19T12:45:56;16.21;65.25
65876;HTU21D;52657;51.128;5.938;2023-11-19T12:48:21;16.21;65.41
65876;HTU21D;52657;51.128;5.938;2023-11-19T12:51:05;16.25;65.27
65876;HTU21D;52657;51.128;5.938;2023-11-19T12:53:56;16.27;65.29
65876;HTU21D;52657;51.128;5.938;2023-11-19T12:56:24;16.30;65.36
65876;HTU21D;52657;51.128;5.938;2023-11-19T12:58:50;16.28;65.10
65876;HTU21D;52657;51.128;5.938;2023-11-19T13:01:20;16.26;65.09
65876;HTU21D;52657;51.128;5.938;2023-11-19T13:03:47;16.27;65.21
65876;HTU21D;52657;51.128;5.938;2023-11-19T13:06:14;16.30;64.98
65876;HTU21D;52657;51.128;5.938;2023-11-19T13:08:43;16.34;64.80
65876;HTU21D;52657;51.128;5.938;2023-11-19T13:11:14;16.31;64.46
65876;HTU21D;52657;51.128;5.938;2023-11-19T13:14:02;16.27;64.50
65876;HTU21D;52657;51.128;5.938;2023-11-19T13:16:36;16.25;64.29
65876;HTU21D;52657;51.128;5.938;2023-11-19T13:19:02;16.22;63.93
65876;HTU21D;52657;51.128;5.938;2023-11-19T13:21:29;16.21;64.10
65876;HTU21D;52657;51.128;5.938;2023-11-19T13:23:57;16.20;64.13
65876;HTU21D;52657;51.128;5.938;2023-11-19T13:26:23;16.22;64.40
65876;HTU21D;52657;51.128;5.938;2023-11-19T13:28:48;16.24;64.75
65876;HTU21D;52657;51.128;5.938;2023-11-19T13:31:14;16.24;64.82
65876;HTU21D;52657;51.128;5.938;2023-11-19T13:44:12;16.00;66.61
65876;HTU21D;52657;51.128;5.938;2023-11-19T13:46:37;15.93;66.75
65876;HTU21D;52657;51.128;5.938;2023-11-19T13:49:04;15.88;67.07
65876;HTU21D;52657;51.128;5.938;2023-11-19T13:51:29;15.86;67.39
65876;HTU21D;52657;51.128;5.938;2023-11-19T13:53:58;15.82;67.82
65876;HTU21D;52657;51.128;5.938;2023-11-19T13:56:24;15.73;67.92
65876;HTU21D;52657;51.128;5.938;2023-11-19T13:58:49;15.72;68.30
65876;HTU21D;52657;51.128;5.938;2023-11-19T14:01:15;15.71;68.28
65876;HTU21D;52657;51.128;5.938;2023-11-19T14:03:41;15.71;68.00
65876;HTU21D;52657;51.128;5.938;2023-11-19T14:06:07;15.71;68.13
65876;HTU21D;52657;51.128;5.938;2023-11-19T14:08:33;15.72;67.74
65876;HTU21D;52657;51.128;5.938;2023-11-19T14:10:59;15.72;67.14
65876;HTU21D;52657;51.128;5.938;2023-11-19T14:13:25;15.74;66.88
65876;HTU21D;52657;51.128;5.938;2023-11-19T14:15:51;15.75;66.65
65876;HTU21D;52657;51.128;5.938;2023-11-19T14:18:17;15.74;66.28
65876;HTU21D;52657;51.128;5.938;2023-11-19T14:20:43;15.74;66.38
65876;HTU21D;52657;51.128;5.938;2023-11-19T14:23:09;15.74;66.33
65876;HTU21D;52657;51.128;5.938;2023-11-19T14:25:35;15.73;66.47
65876;HTU21D;52657;51.128;5.938;2023-11-19T14:28:00;15.66;66.91
65876;HTU21D;52657;51.128;5.938;2023-11-19T14:30:26;15.61;67.54
65876;HTU21D;52657;51.128;5.938;2023-11-19T14:32:52;15.56;68.13
65876;HTU21D;52657;51.128;5.938;2023-11-19T14:35:19;15.54;68.64
65876;HTU21D;52657;51.128;5.938;2023-11-19T14:37:45;15.42;69.12
65876;HTU21D;52657;51.128;5.938;2023-11-19T14:40:11;15.34;69.76
65876;HTU21D;52657;51.128;5.938;2023-11-19T14:42:38;15.27;70.02
65876;HTU21D;52657;51.128;5.938;2023-11-19T14:45:07;15.19;70.55
65876;HTU21D;52657;51.128;5.938;2023-11-19T14:47:33;15.16;70.67
65876;HTU21D;52657;51.128;5.938;2023-11-19T14:49:59;15.06;71.08
65876;HTU21D;52657;51.128;5.938;2023-11-19T14:52:25;15.06;70.82
65876;HTU21D;52657;51.128;5.938;2023-11-19T14:54:50;15.03;70.84
65876;HTU21D;52657;51.128;5.938;2023-11-19T14:57:19;15.02;70.73
65876;HTU21D;52657;51.128;5.938;2023-11-19T14:59:44;14.95;70.89
65876;HTU21D;52657;51.128;5.938;2023-11-19T15:02:11;14.98;70.71
65876;HTU21D;52657;51.128;5.938;2023-11-19T15:04:37;15.03;70.43
65876;HTU21D;52657;51.128;5.938;2023-11-19T15:07:02;15.08;70.27
65876;HTU21D;52657;51.128;5.938;2023-11-19T15:09:29;15.12;69.92
65876;HTU21D;52657;51.128;5.938;2023-11-19T15:11:55;15.10;69.78
65876;HTU21D;52657;51.128;5.938;2023-11-19T15:14:21;15.11;69.65
65876;HTU21D;52657;51.128;5.938;2023-11-19T15:16:47;15.11;69.49
65876;HTU21D;52657;51.128;5.938;2023-11-19T15:19:13;15.11;69.32
65876;HTU21D;52657;51.128;5.938;2023-11-19T15:21:41;15.11;69.00
65876;HTU21D;52657;51.128;5.938;2023-11-19T15:24:08;15.10;68.87
65876;HTU21D;52657;51.128;5.938;2023-11-19T15:26:34;15.13;68.64
65876;HTU21D;52657;51.128;5.938;2023-11-19T15:29:01;15.10;68.38
65876;HTU21D;52657;51.128;5.938;2023-11-19T15:31:27;15.08;68.53
65876;HTU21D;52657;51.128;5.938;2023-11-19T15:33:52;15.09;68.51
65876;HTU21D;52657;51.128;5.938;2023-11-19T15:36:18;15.04;68.48
65876;HTU21D;52657;51.128;5.938;2023-11-19T15:38:44;15.03;68.60
65876;HTU21D;52657;51.128;5.938;2023-11-19T15:41:10;15.04;68.49
65876;HTU21D;52657;51.128;5.938;2023-11-19T15:43:36;15.06;68.24
65876;HTU21D;52657;51.128;5.938;2023-11-19T15:46:06;15.06;68.21
65876;HTU21D;52657;51.128;5.938;2023-11-19T15:48:32;15.09;67.72
65876;HTU21D;52657;51.128;5.938;2023-11-19T15:50:57;15.09;67.77
65876;HTU21D;52657;51.128;5.938;2023-11-19T15:53:23;15.09;67.88
65876;HTU21D;52657;51.128;5.938;2023-11-19T15:55:48;15.08;67.86